createdAt,value
2018-06-13T00:00:48.807Z,0.00
2018-06-13T00:01:48.829Z,0.00
2018-06-13T00:02:48.893Z,0.00
2018-06-13T00:03:48.856Z,0.00
2018-06-13T00:04:48.872Z,0.00
2018-06-13T00:05:48.886Z,0.00
2018-06-13T00:06:48.907Z,0.00
2018-06-13T00:07:48.917Z,0.00
2018-06-13T00:08:48.932Z,0.00
2018-06-13T00:09:48.947Z,0.00
2018-06-13T00:10:48.966Z,0.00
2018-06-13T00:11:48.978Z,0.00
2018-06-13T00:12:48.999Z,0.00
2018-06-13T00:13:49.014Z,0.00
2018-06-13T00:14:49.028Z,0.00
2018-06-13T00:15:49.047Z,0.00
2018-06-13T00:16:49.067Z,0.00
2018-06-13T00:17:49.079Z,0.00
2018-06-13T00:18:49.096Z,0.00
2018-06-13T00:19:49.110Z,0.00
2018-06-13T00:20:49.179Z,0.00
2018-06-13T00:21:49.137Z,0.00
2018-06-13T00:22:49.153Z,0.00
2018-06-13T00:23:49.175Z,0.00
2018-06-13T00:24:49.192Z,0.00
2018-06-13T00:25:49.204Z,0.00
2018-06-13T00:26:49.271Z,0.00
2018-06-13T00:27:49.242Z,0.00
2018-06-13T00:28:49.253Z,0.00
2018-06-13T00:29:49.268Z,0.00
2018-06-13T00:30:49.287Z,0.00
2018-06-13T00:31:49.295Z,0.00
2018-06-13T00:32:49.314Z,0.00
2018-06-13T00:33:49.328Z,0.00
2018-06-13T00:34:49.348Z,0.00
2018-06-13T00:35:49.363Z,0.00
2018-06-13T00:36:49.381Z,0.00
2018-06-13T00:37:49.401Z,0.00
2018-06-13T00:38:49.466Z,0.00
2018-06-13T00:39:49.432Z,0.00
2018-06-13T00:40:49.446Z,0.00
2018-06-13T00:41:49.455Z,0.00
2018-06-13T00:42:49.475Z,0.00
2018-06-13T00:43:49.492Z,0.00
2018-06-13T00:44:49.559Z,0.00
2018-06-13T00:45:49.517Z,0.00
2018-06-13T00:46:49.532Z,0.00
2018-06-13T00:47:49.556Z,0.00
2018-06-13T00:48:49.568Z,0.00
2018-06-13T00:49:49.584Z,0.00
2018-06-13T00:50:49.609Z,0.00
2018-06-13T00:51:49.612Z,0.00
2018-06-13T00:52:49.629Z,0.00
2018-06-13T00:53:49.651Z,0.00
2018-06-13T00:54:49.670Z,0.00
2018-06-13T00:55:49.697Z,0.00
2018-06-13T00:56:49.692Z,0.00
2018-06-13T00:57:49.710Z,0.00
2018-06-13T00:58:49.725Z,0.00
2018-06-13T00:59:49.743Z,0.00
2018-06-13T01:00:49.751Z,0.00
2018-06-13T01:01:49.776Z,0.00
2018-06-13T01:02:49.790Z,0.00
2018-06-13T01:03:49.802Z,0.00
2018-06-13T01:04:49.820Z,0.00
2018-06-13T01:05:49.833Z,0.00
2018-06-13T01:06:49.856Z,0.00
2018-06-13T01:07:49.869Z,0.00
2018-06-13T01:08:49.879Z,0.00
2018-06-13T01:09:49.901Z,0.00
2018-06-13T01:10:49.909Z,0.00
2018-06-13T01:11:49.933Z,0.00
2018-06-13T01:12:49.949Z,0.00
2018-06-13T01:13:49.985Z,0.00
2018-06-13T01:14:49.983Z,0.00
2018-06-13T01:15:49.995Z,0.00
2018-06-13T01:16:50.009Z,0.00
2018-06-13T01:17:50.021Z,0.00
2018-06-13T01:18:50.041Z,0.00
2018-06-13T01:19:50.072Z,0.00
2018-06-13T01:20:50.121Z,0.00
2018-06-13T01:21:50.089Z,0.00
2018-06-13T01:22:50.105Z,0.00
2018-06-13T01:23:50.117Z,0.00
2018-06-13T01:24:50.135Z,0.00
2018-06-13T01:25:50.150Z,0.00
2018-06-13T01:26:50.213Z,0.00
2018-06-13T01:27:50.182Z,0.00
2018-06-13T01:28:50.198Z,0.00
2018-06-13T01:29:50.207Z,0.00
2018-06-13T01:30:50.227Z,0.00
2018-06-13T01:31:50.247Z,0.00
2018-06-13T01:32:50.260Z,0.00
2018-06-13T01:33:50.272Z,0.00
2018-06-13T01:34:50.294Z,0.00
2018-06-13T01:35:50.304Z,0.00
2018-06-13T01:36:50.330Z,0.00
2018-06-13T01:37:50.340Z,0.00
2018-06-13T01:38:50.403Z,0.00
2018-06-13T01:39:50.373Z,0.00
2018-06-13T01:40:50.389Z,0.00
2018-06-13T01:41:50.401Z,0.00
2018-06-13T01:42:50.412Z,0.00
2018-06-13T01:43:50.437Z,0.00
2018-06-13T01:44:50.452Z,0.00
2018-06-13T01:45:50.459Z,0.00
2018-06-13T01:46:50.482Z,0.00
2018-06-13T01:47:50.497Z,0.00
2018-06-13T01:48:50.506Z,0.00
2018-06-13T01:49:50.559Z,0.00
2018-06-13T01:50:50.544Z,0.00
2018-06-13T01:51:50.562Z,0.00
2018-06-13T01:52:50.573Z,0.00
2018-06-13T01:53:50.588Z,0.00
2018-06-13T01:54:50.602Z,0.00
2018-06-13T01:55:50.619Z,0.00
2018-06-13T01:56:50.690Z,0.00
2018-06-13T01:57:50.654Z,0.00
2018-06-13T01:58:50.667Z,0.00
2018-06-13T01:59:50.688Z,0.00
2018-06-13T02:00:50.699Z,0.00
2018-06-13T02:01:50.719Z,0.00
2018-06-13T02:02:50.803Z,0.00
2018-06-13T02:03:50.748Z,0.00
2018-06-13T02:04:50.762Z,0.00
2018-06-13T02:05:50.776Z,0.00
2018-06-13T02:06:50.806Z,0.00
2018-06-13T02:07:50.807Z,0.00
2018-06-13T02:08:50.825Z,0.00
2018-06-13T02:09:50.844Z,0.00
2018-06-13T02:10:50.854Z,0.00
2018-06-13T02:11:50.873Z,0.00
2018-06-13T02:12:50.892Z,0.00
2018-06-13T02:13:50.912Z,0.00
2018-06-13T02:14:50.994Z,0.00
2018-06-13T02:15:50.933Z,0.00
2018-06-13T02:16:50.958Z,0.00
2018-06-13T02:17:50.970Z,0.00
2018-06-13T02:18:50.990Z,0.00
2018-06-13T02:19:51.003Z,0.00
2018-06-13T02:20:51.012Z,0.00
2018-06-13T02:21:51.115Z,0.00
2018-06-13T02:22:51.048Z,0.00
2018-06-13T02:23:51.061Z,0.00
2018-06-13T02:24:51.080Z,0.00
2018-06-13T02:25:51.098Z,0.00
2018-06-13T02:26:51.112Z,0.00
2018-06-13T02:27:51.126Z,0.00
2018-06-13T02:28:51.139Z,0.00
2018-06-13T02:29:51.162Z,0.00
2018-06-13T02:30:51.178Z,0.00
2018-06-13T02:31:51.189Z,0.00
2018-06-13T02:32:51.206Z,0.00
2018-06-13T02:33:51.223Z,0.00
2018-06-13T02:34:51.237Z,0.00
2018-06-13T02:35:51.253Z,0.00
2018-06-13T02:36:51.266Z,0.00
2018-06-13T02:37:51.280Z,0.00
2018-06-13T02:38:51.301Z,0.00
2018-06-13T02:39:51.318Z,0.00
2018-06-13T02:40:51.334Z,0.00
2018-06-13T02:41:51.354Z,0.00
2018-06-13T02:42:51.359Z,0.00
2018-06-13T02:43:51.383Z,0.00
2018-06-13T02:44:51.390Z,0.00
2018-06-13T02:45:51.412Z,0.00
2018-06-13T02:46:51.424Z,0.00
2018-06-13T02:47:51.442Z,0.00
2018-06-13T02:48:51.453Z,0.00
2018-06-13T02:49:51.475Z,0.00
2018-06-13T02:50:51.537Z,0.00
2018-06-13T02:51:51.503Z,0.00
2018-06-13T02:52:51.518Z,0.00
2018-06-13T02:53:51.535Z,0.00
2018-06-13T02:54:51.554Z,0.00
2018-06-13T02:55:51.642Z,0.00
2018-06-13T02:56:51.640Z,0.00
2018-06-13T02:57:51.598Z,0.00
2018-06-13T02:58:51.612Z,0.00
2018-06-13T02:59:51.637Z,0.00
2018-06-13T03:00:51.644Z,0.00
2018-06-13T03:01:51.678Z,0.00
2018-06-13T03:03:55.354Z,0.00
2018-06-13T03:04:51.708Z,0.00
2018-06-13T03:05:51.726Z,0.00
2018-06-13T03:06:51.744Z,0.00
2018-06-13T03:07:51.760Z,0.00
2018-06-13T03:08:51.826Z,0.00
2018-06-13T03:09:51.791Z,0.00
2018-06-13T03:10:51.803Z,0.00
2018-06-13T03:11:51.822Z,0.00
2018-06-13T03:12:51.836Z,0.00
2018-06-13T03:13:51.854Z,0.00
2018-06-13T03:14:51.871Z,0.00
2018-06-13T03:15:51.889Z,0.00
2018-06-13T03:16:51.902Z,0.00
2018-06-13T03:17:51.913Z,0.00
2018-06-13T03:18:51.930Z,0.00
2018-06-13T03:19:51.950Z,0.00
2018-06-13T03:20:51.985Z,0.00
2018-06-13T03:21:51.976Z,0.00
2018-06-13T03:22:51.991Z,0.00
2018-06-13T03:23:52.014Z,0.00
2018-06-13T03:24:52.119Z,0.00
2018-06-13T03:25:52.043Z,0.00
2018-06-13T03:26:52.087Z,0.00
2018-06-13T03:27:52.067Z,0.00
2018-06-13T03:28:52.082Z,0.00
2018-06-13T03:29:52.104Z,0.00
2018-06-13T03:30:52.118Z,0.00
2018-06-13T03:31:52.136Z,0.00
2018-06-13T03:32:52.202Z,0.00
2018-06-13T03:33:52.170Z,0.00
2018-06-13T03:34:52.180Z,0.00
2018-06-13T03:35:52.197Z,0.00
2018-06-13T03:36:52.215Z,0.00
2018-06-13T03:37:52.231Z,0.00
2018-06-13T03:38:52.267Z,0.00
2018-06-13T03:39:52.266Z,0.00
2018-06-13T03:40:52.274Z,0.00
2018-06-13T03:41:52.296Z,0.00
2018-06-13T03:42:52.309Z,0.00
2018-06-13T03:43:52.327Z,0.00
2018-06-13T03:44:52.385Z,0.00
2018-06-13T03:45:52.359Z,0.00
2018-06-13T03:46:52.367Z,0.00
2018-06-13T03:47:52.386Z,0.00
2018-06-13T03:48:52.407Z,0.00
2018-06-13T03:49:52.415Z,0.00
2018-06-13T03:50:52.452Z,0.00
2018-06-13T03:51:52.454Z,0.00
2018-06-13T03:52:52.468Z,0.00
2018-06-13T03:53:52.480Z,0.00
2018-06-13T03:54:52.494Z,0.00
2018-06-13T03:55:52.510Z,0.00
2018-06-13T03:56:52.531Z,0.00
2018-06-13T03:57:52.545Z,0.00
2018-06-13T03:58:52.565Z,0.00
2018-06-13T03:59:52.577Z,0.00
2018-06-13T04:00:52.591Z,0.00
2018-06-13T04:01:52.669Z,0.00
2018-06-13T04:02:52.630Z,0.00
2018-06-13T04:03:52.637Z,0.00
2018-06-13T04:04:52.659Z,0.00
2018-06-13T04:05:52.672Z,0.00
2018-06-13T04:06:52.684Z,0.00
2018-06-13T04:07:52.711Z,0.00
2018-06-13T04:08:52.717Z,0.00
2018-06-13T04:09:52.731Z,0.00
2018-06-13T04:10:52.752Z,0.00
2018-06-13T04:11:52.768Z,0.00
2018-06-13T04:12:52.783Z,0.00
2018-06-13T04:13:52.797Z,0.00
2018-06-13T04:14:52.818Z,0.00
2018-06-13T04:15:52.833Z,0.00
2018-06-13T04:16:52.846Z,0.00
2018-06-13T04:17:52.866Z,0.00
2018-06-13T04:18:52.875Z,0.00
2018-06-13T04:19:52.892Z,0.00
2018-06-13T04:20:52.907Z,0.00
2018-06-13T04:21:52.945Z,0.00
2018-06-13T04:22:52.941Z,0.00
2018-06-13T04:23:52.958Z,0.00
2018-06-13T04:24:52.976Z,0.00
2018-06-13T04:25:52.987Z,0.00
2018-06-13T04:26:53.014Z,0.00
2018-06-13T04:27:53.025Z,0.00
2018-06-13T04:28:53.033Z,0.00
2018-06-13T04:29:53.053Z,0.00
2018-06-13T04:30:53.065Z,0.00
2018-06-13T04:31:53.084Z,0.00
2018-06-13T04:32:53.155Z,0.00
2018-06-13T04:33:53.120Z,0.00
2018-06-13T04:34:53.137Z,0.00
2018-06-13T04:35:53.244Z,0.00
2018-06-13T04:36:53.168Z,0.00
2018-06-13T04:37:53.181Z,0.00
2018-06-13T04:38:53.200Z,0.00
2018-06-13T04:39:53.214Z,0.00
2018-06-13T04:40:53.227Z,0.00
2018-06-13T04:41:53.276Z,0.00
2018-06-13T04:42:53.261Z,0.00
2018-06-13T04:43:53.279Z,0.00
2018-06-13T04:44:53.346Z,0.00
2018-06-13T04:45:53.308Z,0.00
2018-06-13T04:46:53.325Z,0.00
2018-06-13T04:47:53.344Z,0.00
2018-06-13T04:48:53.358Z,0.00
2018-06-13T04:49:53.372Z,0.00
2018-06-13T04:50:53.387Z,0.00
2018-06-13T04:51:53.407Z,0.00
2018-06-13T04:52:53.423Z,0.00
2018-06-13T04:53:53.431Z,0.00
2018-06-13T04:54:53.449Z,0.00
2018-06-13T04:55:53.470Z,0.00
2018-06-13T04:56:53.479Z,0.00
2018-06-13T04:57:53.499Z,0.00
2018-06-13T04:58:53.513Z,0.00
2018-06-13T04:59:53.529Z,0.00
2018-06-13T05:00:53.546Z,0.00
2018-06-13T05:01:53.565Z,0.00
2018-06-13T05:02:53.586Z,0.00
2018-06-13T05:03:53.592Z,0.00
2018-06-13T05:04:53.613Z,0.00
2018-06-13T05:05:53.631Z,0.00
2018-06-13T05:06:53.639Z,0.00
2018-06-13T05:07:53.669Z,0.00
2018-06-13T05:08:53.672Z,0.00
2018-06-13T05:09:53.691Z,0.00
2018-06-13T05:10:53.709Z,0.00
2018-06-13T05:11:53.719Z,0.00
2018-06-13T05:12:53.741Z,0.00
2018-06-13T05:13:53.792Z,0.00
2018-06-13T05:14:53.822Z,0.00
2018-06-13T05:15:53.784Z,0.00
2018-06-13T05:16:53.798Z,0.00
2018-06-13T05:17:53.815Z,0.00
2018-06-13T05:18:53.837Z,0.00
2018-06-13T05:19:53.864Z,0.00
2018-06-13T05:20:53.865Z,5.63
2018-06-13T05:21:53.885Z,5.63
2018-06-13T05:22:53.900Z,5.63
2018-06-13T05:23:53.920Z,5.63
2018-06-13T05:24:53.925Z,5.63
2018-06-13T05:25:53.963Z,5.63
2018-06-13T05:26:53.964Z,5.63
2018-06-13T05:27:53.975Z,5.63
2018-06-13T05:28:53.992Z,5.63
2018-06-13T05:29:54.009Z,5.63
2018-06-13T05:30:54.024Z,5.63
2018-06-13T05:31:54.075Z,5.63
2018-06-13T05:32:54.054Z,5.63
2018-06-13T05:33:54.077Z,11.25
2018-06-13T05:34:54.090Z,11.25
2018-06-13T05:35:54.105Z,11.25
2018-06-13T05:36:54.120Z,11.25
2018-06-13T05:37:54.236Z,11.25
2018-06-13T05:38:54.150Z,11.25
2018-06-13T05:39:54.173Z,11.25
2018-06-13T05:40:54.189Z,16.88
2018-06-13T05:41:54.261Z,16.88
2018-06-13T05:42:54.214Z,16.88
2018-06-13T05:43:54.250Z,16.88
2018-06-13T05:44:54.252Z,22.50
2018-06-13T05:45:54.263Z,22.50
2018-06-13T05:46:54.282Z,28.13
2018-06-13T05:47:54.302Z,28.13
2018-06-13T05:48:54.316Z,28.13
2018-06-13T05:49:54.386Z,28.13
2018-06-13T05:50:54.349Z,28.13
2018-06-13T05:51:54.377Z,33.75
2018-06-13T05:52:54.372Z,33.75
2018-06-13T05:53:54.390Z,33.75
2018-06-13T05:54:54.429Z,39.38
2018-06-13T05:55:54.435Z,33.75
2018-06-13T05:56:54.448Z,33.75
2018-06-13T05:57:54.458Z,33.75
2018-06-13T05:58:54.472Z,39.38
2018-06-13T05:59:54.485Z,45.00
2018-06-13T06:00:54.504Z,45.00
2018-06-13T06:01:54.559Z,45.00
2018-06-13T06:02:54.540Z,45.00
2018-06-13T06:03:54.554Z,50.63
2018-06-13T06:04:54.571Z,50.63
2018-06-13T06:05:54.581Z,56.25
2018-06-13T06:06:54.600Z,56.25
2018-06-13T06:07:54.694Z,56.25
2018-06-13T06:08:54.658Z,56.25
2018-06-13T06:09:54.650Z,61.88
2018-06-13T06:10:54.668Z,67.50
2018-06-13T06:11:54.681Z,61.88
2018-06-13T06:12:54.693Z,73.13
2018-06-13T06:13:54.717Z,73.13
2018-06-13T06:14:54.731Z,73.13
2018-06-13T06:15:54.745Z,67.50
2018-06-13T06:16:54.765Z,61.88
2018-06-13T06:17:54.781Z,61.88
2018-06-13T06:18:54.798Z,61.88
2018-06-13T06:19:54.831Z,67.50
2018-06-13T06:20:54.828Z,67.50
2018-06-13T06:21:54.845Z,67.50
2018-06-13T06:22:54.860Z,67.50
2018-06-13T06:23:54.877Z,67.50
2018-06-13T06:24:54.888Z,73.13
2018-06-13T06:25:54.934Z,84.38
2018-06-13T06:26:54.923Z,73.13
2018-06-13T06:27:54.940Z,67.50
2018-06-13T06:28:54.953Z,73.13
2018-06-13T06:29:54.976Z,84.38
2018-06-13T06:30:54.988Z,95.63
2018-06-13T06:31:55.039Z,135.00
2018-06-13T06:32:55.023Z,157.50
2018-06-13T06:33:55.039Z,168.75
2018-06-13T06:34:55.056Z,163.13
2018-06-13T06:35:55.067Z,191.25
2018-06-13T06:36:55.162Z,168.75
2018-06-13T06:37:55.136Z,191.25
2018-06-13T06:38:55.122Z,196.88
2018-06-13T06:39:55.139Z,208.13
2018-06-13T06:40:55.151Z,151.88
2018-06-13T06:41:55.169Z,196.88
2018-06-13T06:42:55.188Z,202.50
2018-06-13T06:43:55.256Z,230.63
2018-06-13T06:44:55.220Z,202.50
2018-06-13T06:45:55.231Z,236.25
2018-06-13T06:46:55.251Z,225.00
2018-06-13T06:47:55.265Z,123.75
2018-06-13T06:48:55.285Z,196.88
2018-06-13T06:49:55.305Z,213.75
2018-06-13T06:50:55.320Z,174.38
2018-06-13T06:51:55.336Z,180.00
2018-06-13T06:52:55.364Z,258.75
2018-06-13T06:53:55.370Z,270.00
2018-06-13T06:54:55.383Z,225.00
2018-06-13T06:55:55.400Z,281.25
2018-06-13T06:56:55.420Z,163.13
2018-06-13T06:57:55.433Z,225.00
2018-06-13T06:58:55.452Z,140.63
2018-06-13T06:59:55.476Z,140.63
2018-06-13T07:00:55.490Z,140.63
2018-06-13T07:01:55.507Z,157.50
2018-06-13T07:02:55.524Z,151.88
2018-06-13T07:03:55.542Z,180.00
2018-06-13T07:04:55.553Z,309.38
2018-06-13T07:05:55.570Z,309.38
2018-06-13T07:06:55.621Z,292.50
2018-06-13T07:07:55.610Z,191.25
2018-06-13T07:08:55.681Z,292.50
2018-06-13T07:09:55.643Z,309.38
2018-06-13T07:10:55.654Z,275.63
2018-06-13T07:11:55.673Z,315.00
2018-06-13T07:12:55.689Z,315.00
2018-06-13T07:13:55.705Z,315.00
2018-06-13T07:14:55.721Z,337.50
2018-06-13T07:15:55.741Z,331.88
2018-06-13T07:16:55.761Z,331.88
2018-06-13T07:17:55.782Z,309.38
2018-06-13T07:18:55.870Z,337.50
2018-06-13T07:19:55.809Z,348.75
2018-06-13T07:20:55.826Z,365.63
2018-06-13T07:21:55.845Z,365.63
2018-06-13T07:22:55.867Z,371.25
2018-06-13T07:23:55.876Z,365.63
2018-06-13T07:24:55.893Z,376.88
2018-06-13T07:25:55.913Z,371.25
2018-06-13T07:26:56.013Z,365.63
2018-06-13T07:27:55.955Z,331.88
2018-06-13T07:28:55.963Z,365.63
2018-06-13T07:29:55.987Z,365.63
2018-06-13T07:30:56.002Z,360.00
2018-06-13T07:31:56.022Z,360.00
2018-06-13T07:32:56.101Z,376.88
2018-06-13T07:33:56.053Z,382.50
2018-06-13T07:34:56.075Z,382.50
2018-06-13T07:35:56.088Z,393.75
2018-06-13T07:36:56.112Z,388.13
2018-06-13T07:37:56.131Z,388.13
2018-06-13T07:38:56.161Z,393.75
2018-06-13T07:39:56.167Z,399.38
2018-06-13T07:40:56.184Z,399.38
2018-06-13T07:41:56.198Z,405.00
2018-06-13T07:42:56.216Z,405.00
2018-06-13T07:43:56.235Z,405.00
2018-06-13T07:44:56.256Z,410.63
2018-06-13T07:45:56.274Z,410.63
2018-06-13T07:46:56.288Z,416.25
2018-06-13T07:47:56.310Z,421.88
2018-06-13T07:48:56.331Z,421.88
2018-06-13T07:49:56.349Z,421.88
2018-06-13T07:50:56.365Z,427.50
2018-06-13T07:51:56.386Z,433.13
2018-06-13T07:52:56.397Z,438.75
2018-06-13T07:53:56.414Z,438.75
2018-06-13T07:54:56.437Z,444.38
2018-06-13T07:55:56.457Z,444.38
2018-06-13T07:56:56.481Z,444.38
2018-06-13T07:57:56.496Z,450.00
2018-06-13T07:58:56.512Z,455.63
2018-06-13T07:59:56.534Z,455.63
2018-06-13T08:00:56.555Z,455.63
2018-06-13T08:01:56.565Z,461.25
2018-06-13T08:02:56.597Z,461.25
2018-06-13T08:03:56.605Z,461.25
2018-06-13T08:04:56.627Z,466.88
2018-06-13T08:05:56.643Z,472.50
2018-06-13T08:06:56.661Z,472.50
2018-06-13T08:07:56.676Z,472.50
2018-06-13T08:08:56.800Z,478.13
2018-06-13T08:09:56.719Z,478.13
2018-06-13T08:10:56.741Z,483.75
2018-06-13T08:11:56.777Z,483.75
2018-06-13T08:12:56.777Z,489.38
2018-06-13T08:13:56.795Z,489.38
2018-06-13T08:14:56.818Z,495.00
2018-06-13T08:15:56.830Z,495.00
2018-06-13T08:16:56.915Z,495.00
2018-06-13T08:17:56.876Z,500.63
2018-06-13T08:18:56.891Z,500.63
2018-06-13T08:19:56.915Z,500.63
2018-06-13T08:20:56.937Z,506.25
2018-06-13T08:21:56.946Z,511.88
2018-06-13T08:22:56.968Z,511.88
2018-06-13T08:23:56.991Z,511.88
2018-06-13T08:24:57.011Z,523.13
2018-06-13T08:25:57.030Z,523.13
2018-06-13T08:26:57.053Z,523.13
2018-06-13T08:27:57.066Z,534.38
2018-06-13T08:28:57.084Z,528.75
2018-06-13T08:29:57.109Z,534.38
2018-06-13T08:30:57.135Z,528.75
2018-06-13T08:31:57.151Z,534.38
2018-06-13T08:32:57.166Z,534.38
2018-06-13T08:33:57.181Z,534.38
2018-06-13T08:34:57.208Z,540.00
2018-06-13T08:35:57.225Z,540.00
2018-06-13T08:36:57.246Z,545.63
2018-06-13T08:37:57.266Z,545.63
2018-06-13T08:38:57.287Z,540.00
2018-06-13T08:39:57.303Z,545.63
2018-06-13T08:40:57.328Z,545.63
2018-06-13T08:41:57.343Z,545.63
2018-06-13T08:42:57.369Z,551.25
2018-06-13T08:44:57.405Z,556.88
2018-06-13T08:45:57.423Z,562.50
2018-06-13T08:46:57.445Z,562.50
2018-06-13T08:47:57.466Z,562.50
2018-06-13T08:48:57.486Z,568.13
2018-06-13T08:49:57.506Z,562.50
2018-06-13T08:50:57.529Z,573.75
2018-06-13T08:51:57.550Z,562.50
2018-06-13T08:52:57.569Z,573.75
2018-06-13T08:53:57.589Z,579.38
2018-06-13T08:54:57.605Z,573.75
2018-06-13T08:55:57.631Z,579.38
2018-06-13T08:56:57.649Z,579.38
2018-06-13T08:57:57.777Z,579.38
2018-06-13T08:58:57.690Z,585.00
2018-06-13T08:59:57.712Z,590.63
2018-06-13T09:00:57.743Z,596.25
2018-06-13T09:01:57.749Z,590.63
2018-06-13T09:02:57.775Z,596.25
2018-06-13T09:03:57.823Z,596.25
2018-06-13T09:04:57.813Z,601.88
2018-06-13T09:05:57.832Z,596.25
2018-06-13T09:06:57.855Z,596.25
2018-06-13T09:07:57.874Z,601.88
2018-06-13T09:08:57.910Z,601.88
2018-06-13T09:09:58.001Z,601.88
2018-06-13T09:10:57.932Z,601.88
2018-06-13T09:11:57.953Z,607.50
2018-06-13T09:12:57.980Z,613.13
2018-06-13T09:13:57.997Z,613.13
2018-06-13T09:14:58.027Z,618.75
2018-06-13T09:15:58.037Z,618.75
2018-06-13T09:16:58.063Z,618.75
2018-06-13T09:17:58.080Z,618.75
2018-06-13T09:18:58.100Z,613.13
2018-06-13T09:19:58.129Z,618.75
2018-06-13T09:20:58.146Z,630.00
2018-06-13T09:21:58.165Z,618.75
2018-06-13T09:22:58.182Z,624.38
2018-06-13T09:23:58.212Z,624.38
2018-06-13T09:24:58.229Z,630.00
2018-06-13T09:25:58.253Z,630.00
2018-06-13T09:26:58.280Z,630.00
2018-06-13T09:27:58.293Z,630.00
2018-06-13T09:28:58.317Z,635.63
2018-06-13T09:29:58.339Z,630.00
2018-06-13T09:30:58.359Z,630.00
2018-06-13T09:31:58.383Z,641.25
2018-06-13T09:32:58.403Z,635.63
2018-06-13T09:33:58.420Z,641.25
2018-06-13T09:34:58.442Z,641.25
2018-06-13T09:35:58.468Z,641.25
2018-06-13T09:36:58.485Z,646.88
2018-06-13T09:37:58.511Z,641.25
2018-06-13T09:38:58.531Z,646.88
2018-06-13T09:39:58.553Z,652.50
2018-06-13T09:40:58.573Z,652.50
2018-06-13T09:41:58.606Z,658.13
2018-06-13T09:42:58.620Z,652.50
2018-06-13T09:43:58.666Z,663.75
2018-06-13T09:44:58.654Z,658.13
2018-06-13T09:46:03.399Z,658.13
2018-06-13T09:46:58.702Z,658.13
2018-06-13T09:47:58.790Z,658.13
2018-06-13T09:48:58.742Z,658.13
2018-06-13T09:49:58.810Z,663.75
2018-06-13T09:50:58.791Z,663.75
2018-06-13T09:51:58.807Z,669.38
2018-06-13T09:52:58.833Z,669.38
2018-06-13T09:53:58.856Z,675.00
2018-06-13T09:54:58.871Z,669.38
2018-06-13T09:55:58.893Z,675.00
2018-06-13T09:56:58.920Z,675.00
2018-06-13T09:57:58.942Z,675.00
2018-06-13T09:58:58.962Z,680.63
2018-06-13T09:59:58.988Z,675.00
2018-06-13T10:00:59.072Z,675.00
2018-06-13T10:01:59.027Z,680.63
2018-06-13T10:02:59.053Z,680.63
2018-06-13T10:03:59.076Z,680.63
2018-06-13T10:04:59.095Z,680.63
2018-06-13T10:05:59.124Z,680.63
2018-06-13T10:06:59.135Z,680.63
2018-06-13T10:07:59.160Z,680.63
2018-06-13T10:08:59.182Z,691.88
2018-06-13T10:09:59.207Z,686.25
2018-06-13T10:10:59.301Z,686.25
2018-06-13T10:11:59.252Z,686.25
2018-06-13T10:12:59.278Z,686.25
2018-06-13T10:13:59.332Z,691.88
2018-06-13T10:14:59.317Z,691.88
2018-06-13T10:15:59.340Z,691.88
2018-06-13T10:16:59.423Z,691.88
2018-06-13T10:17:59.381Z,686.25
2018-06-13T10:18:59.409Z,691.88
2018-06-13T10:19:59.433Z,697.50
2018-06-13T10:20:59.452Z,691.88
2018-06-13T10:21:59.472Z,697.50
2018-06-13T10:22:59.500Z,703.13
2018-06-13T10:23:59.521Z,697.50
2018-06-13T10:24:59.543Z,703.13
2018-06-13T10:25:59.560Z,703.13
2018-06-13T10:26:59.597Z,697.50
2018-06-13T10:27:59.611Z,703.13
2018-06-13T10:28:59.749Z,703.13
2018-06-13T10:29:59.656Z,708.75
2018-06-13T10:30:59.678Z,703.13
2018-06-13T10:31:59.710Z,708.75
2018-06-13T10:32:59.724Z,708.75
2018-06-13T10:33:59.750Z,703.13
2018-06-13T10:34:59.795Z,703.13
2018-06-13T10:35:59.792Z,708.75
2018-06-13T10:36:59.813Z,714.38
2018-06-13T10:37:59.844Z,708.75
2018-06-13T10:38:59.865Z,714.38
2018-06-13T10:39:59.889Z,714.38
2018-06-13T10:40:59.910Z,708.75
2018-06-13T10:43:59.976Z,714.38
2018-06-13T10:44:59.997Z,720.00
2018-06-13T10:46:00.031Z,714.38
2018-06-13T10:47:00.051Z,720.00
2018-06-13T10:48:00.069Z,714.38
2018-06-13T10:49:00.095Z,725.63
2018-06-13T10:50:00.124Z,720.00
2018-06-13T10:51:00.144Z,720.00
2018-06-13T10:52:00.170Z,720.00
2018-06-13T10:53:00.184Z,720.00
2018-06-13T10:54:00.217Z,725.63
2018-06-13T10:55:00.238Z,725.63
2018-06-13T10:56:00.258Z,725.63
2018-06-13T10:57:00.289Z,708.75
2018-06-13T10:58:00.311Z,725.63
2018-06-13T10:59:00.330Z,725.63
2018-06-13T11:00:00.386Z,725.63
2018-06-13T11:01:00.378Z,725.63
2018-06-13T11:02:00.404Z,725.63
2018-06-13T11:03:00.431Z,725.63
2018-06-13T11:04:00.448Z,731.25
2018-06-13T11:05:00.473Z,725.63
2018-06-13T11:06:00.490Z,725.63
2018-06-13T11:07:00.516Z,725.63
2018-06-13T11:08:00.547Z,731.25
2018-06-13T11:09:00.565Z,725.63
2018-06-13T11:10:00.789Z,725.63
2018-06-13T11:11:00.613Z,725.63
2018-06-13T11:12:00.639Z,720.00
2018-06-13T11:13:00.663Z,720.00
2018-06-13T11:14:00.687Z,725.63
2018-06-13T11:15:00.714Z,725.63
2018-06-13T11:16:00.733Z,725.63
2018-06-13T11:17:00.764Z,725.63
2018-06-13T11:18:00.785Z,725.63
2018-06-13T11:19:00.810Z,725.63
2018-06-13T11:20:00.832Z,725.63
2018-06-13T11:21:00.860Z,725.63
2018-06-13T11:22:00.882Z,725.63
2018-06-13T11:23:00.905Z,725.63
2018-06-13T11:24:00.929Z,725.63
2018-06-13T11:25:00.954Z,731.25
2018-06-13T11:26:00.982Z,731.25
2018-06-13T11:27:01.114Z,731.25
2018-06-13T11:28:01.028Z,725.63
2018-06-13T11:29:01.100Z,725.63
2018-06-13T11:30:01.085Z,731.25
2018-06-13T11:31:01.135Z,731.25
2018-06-13T11:32:01.127Z,725.63
2018-06-13T11:33:01.148Z,731.25
2018-06-13T11:34:01.170Z,731.25
2018-06-13T11:35:01.198Z,731.25
2018-06-13T11:36:01.223Z,725.63
2018-06-13T11:37:01.245Z,725.63
2018-06-13T11:39:01.400Z,725.63
2018-06-13T11:40:01.321Z,725.63
2018-06-13T11:41:01.345Z,725.63
2018-06-13T11:47:01.484Z,731.25
2018-06-13T11:48:01.508Z,731.25
2018-06-13T11:49:01.598Z,731.25
2018-06-13T11:51:01.583Z,731.25
2018-06-13T11:53:01.691Z,725.63
2018-06-13T11:54:01.717Z,736.88
2018-06-13T11:55:01.739Z,736.88
2018-06-13T11:56:01.703Z,731.25
2018-06-13T11:58:01.761Z,736.88
2018-06-13T12:04:01.895Z,731.25
2018-06-13T12:08:01.992Z,742.50
2018-06-13T12:09:02.022Z,731.25
2018-06-13T12:10:02.043Z,714.38
2018-06-13T12:11:02.179Z,720.00
2018-06-13T12:12:02.126Z,720.00
2018-06-13T12:13:02.120Z,736.88
2018-06-13T12:14:02.180Z,725.63
2018-06-13T12:15:02.236Z,731.25
2018-06-13T12:16:02.192Z,731.25
2018-06-13T12:17:02.238Z,725.63
2018-06-13T12:18:02.240Z,725.63
2018-06-13T12:19:02.262Z,725.63
2018-06-13T12:20:02.287Z,725.63
2018-06-13T12:21:02.312Z,731.25
2018-06-13T12:22:02.333Z,731.25
2018-06-13T12:23:02.361Z,731.25
2018-06-13T12:24:02.385Z,731.25
2018-06-13T12:25:02.412Z,731.25
2018-06-13T12:26:02.446Z,736.88
2018-06-13T12:27:02.463Z,742.50
2018-06-13T12:28:02.488Z,731.25
2018-06-13T12:29:02.515Z,731.25
2018-06-13T12:30:02.533Z,725.63
2018-06-13T12:31:02.555Z,720.00
2018-06-13T12:32:02.649Z,720.00
2018-06-13T12:33:02.608Z,725.63
2018-06-13T12:34:02.635Z,725.63
2018-06-13T12:35:02.658Z,720.00
2018-06-13T12:36:02.685Z,731.25
2018-06-13T12:37:02.712Z,720.00
2018-06-13T12:38:02.754Z,720.00
2018-06-13T12:39:02.766Z,725.63
2018-06-13T12:40:02.878Z,714.38
2018-06-13T12:41:02.810Z,725.63
2018-06-13T12:42:02.831Z,725.63
2018-06-13T12:43:02.862Z,725.63
2018-06-13T12:44:02.952Z,725.63
2018-06-13T12:45:02.904Z,731.25
2018-06-13T12:46:02.931Z,720.00
2018-06-13T12:47:02.955Z,731.25
2018-06-13T12:48:02.984Z,725.63
2018-06-13T12:49:03.007Z,720.00
2018-06-13T12:50:03.026Z,731.25
2018-06-13T12:51:03.051Z,725.63
2018-06-13T12:52:03.083Z,708.75
2018-06-13T12:53:03.104Z,720.00
2018-06-13T12:54:03.134Z,720.00
2018-06-13T12:55:03.151Z,736.88
2018-06-13T12:56:03.175Z,725.63
2018-06-13T12:57:03.205Z,720.00
2018-06-13T12:58:03.225Z,720.00
2018-06-13T12:59:03.418Z,720.00
2018-06-13T13:00:03.283Z,725.63
2018-06-13T13:01:03.300Z,720.00
2018-06-13T13:03:03.457Z,714.38
2018-06-13T13:06:03.432Z,714.38
2018-06-13T13:07:03.459Z,720.00
2018-06-13T13:08:03.478Z,720.00
2018-06-13T13:10:03.523Z,720.00
2018-06-13T13:11:03.580Z,720.00
2018-06-13T13:12:03.572Z,720.00
2018-06-13T13:13:03.650Z,720.00
2018-06-13T13:14:03.628Z,720.00
2018-06-13T13:15:03.652Z,720.00
2018-06-13T13:16:03.677Z,714.38
2018-06-13T13:17:03.699Z,714.38